Time;durP1;ratioP1;P1;durP2;ratioP2;P2;SDS_P1;SDS_P2;PMS_P1;PMS_P2;Temp;Humidity;BMP_temperature;BMP_pressure;BME280_temperature;BME280_humidity;BME280_pressure;Samples;Min_cycle;Max_cycle;Signal;HPM_P1;HPM_P2
2022/06/11 00:01:08;;;;;;;5.33;4.17;;;-40.00;99.90;;;;;;5136944;27;20160;-79
2022/06/11 00:03:35;;;;;;;6.00;3.67;;;-40.00;99.90;;;;;;5137164;27;20169;-78
2022/06/11 00:06:03;;;;;;;4.43;3.00;;;-40.00;99.90;;;;;;5136951;27;20173;-66
2022/06/11 00:08:29;;;;;;;4.70;3.37;;;-40.00;99.90;;;;;;5135977;27;20197;-74
2022/06/11 00:10:55;;;;;;;4.93;3.67;;;-40.00;99.90;;;;;;5136888;27;20281;-79
2022/06/11 00:13:22;;;;;;;4.43;4.03;;;-40.00;99.90;;;;;;5136975;27;20199;-73
2022/06/11 00:15:50;;;;;;;8.50;3.83;;;-40.00;99.90;;;;;;5136521;27;20201;-82
2022/06/11 00:18:16;;;;;;;4.43;4.00;;;-40.00;99.90;;;;;;5136984;27;20241;-72
2022/06/11 00:20:43;;;;;;;9.43;3.23;;;-40.00;99.90;;;;;;5136847;27;20166;-79
2022/06/11 00:23:08;;;;;;;7.47;3.33;;;-39.90;99.90;;;;;;5136718;27;20243;-79
2022/06/11 00:25:35;;;;;;;15.37;4.40;;;-40.00;99.90;;;;;;5136742;27;20188;-74
2022/06/11 00:28:06;;;;;;;6.20;3.73;;;-40.00;99.90;;;;;;5136740;27;20237;-79
2022/06/11 00:30:32;;;;;;;4.03;3.27;;;-36.20;99.90;;;;;;5136488;27;20303;-76
2022/06/11 00:32:58;;;;;;;8.00;4.50;;;-40.00;99.90;;;;;;5136474;27;20277;-74
2022/06/11 00:35:26;;;;;;;6.47;4.03;;;-40.00;99.90;;;;;;5136682;27;20448;-69
2022/06/11 00:37:51;;;;;;;17.90;4.23;;;-37.50;99.90;;;;;;5136255;27;20181;-78
2022/06/11 00:40:21;;;;;;;18.43;4.23;;;-37.40;99.90;;;;;;5136381;27;20169;-78
2022/06/11 00:42:47;;;;;;;8.30;3.60;;;-40.00;99.90;;;;;;5136325;27;20239;-77
2022/06/11 00:45:24;;;;;;;5.33;3.83;;;-40.00;99.90;;;;;;5136062;27;20598;-79
2022/06/11 00:48:04;;;;;;;5.23;2.97;;;-35.20;99.90;;;;;;5136499;27;20241;-76
2022/06/11 00:50:42;;;;;;;6.07;3.67;;;-40.00;99.90;;;;;;5135492;27;20559;-75
2022/06/11 00:53:24;;;;;;;3.83;3.53;;;-40.00;99.90;;;;;;5136334;27;20201;-79
2022/06/11 00:55:50;;;;;;;3.53;3.17;;;-40.00;99.90;;;;;;5135450;28;20210;-70
2022/06/11 00:58:21;;;;;;;6.50;4.07;;;-40.00;99.90;;;;;;5136494;27;20173;-74
2022/06/11 01:00:54;;;;;;;4.03;3.30;;;-40.00;99.90;;;;;;5136161;27;20267;-75
2022/06/11 01:03:31;;;;;;;4.20;3.00;;;-40.00;99.90;;;;;;5136267;27;20166;-73
2022/06/11 01:06:17;;;;;;;4.90;4.03;;;-40.00;99.90;;;;;;5136348;27;20201;-76
2022/06/11 01:09:29;;;;;;;4.40;3.30;;;-40.00;99.90;;;;;;5136185;27;20193;-75
2022/06/11 01:12:31;;;;;;;6.07;3.80;;;-40.00;99.90;;;;;;5093133;28;20202;-72
2022/06/11 01:15:12;;;;;;;5.37;3.60;;;-40.00;99.90;;;;;;5135936;27;20161;-78
2022/06/11 01:17:57;;;;;;;9.13;3.93;;;-40.00;99.90;;;;;;5136153;27;20175;-76
2022/06/11 01:20:33;;;;;;;5.30;3.33;;;-40.00;99.90;;;;;;5136284;27;20179;-77
2022/06/11 01:23:14;;;;;;;4.40;3.10;;;-40.00;99.90;;;;;;5134893;27;20165;-77
2022/06/11 01:26:05;;;;;;;7.43;3.90;;;-40.00;99.90;;;;;;5136141;27;20560;-78
2022/06/11 01:28:39;;;;;;;3.93;3.13;;;-40.00;99.90;;;;;;5134676;27;20166;-73
2022/06/11 01:31:24;;;;;;;7.50;3.33;;;-40.00;99.90;;;;;;5136027;27;20169;-73
2022/06/11 01:34:13;;;;;;;3.00;2.80;;;-40.00;99.90;;;;;;5135916;27;20204;-74
2022/06/11 01:36:42;;;;;;;5.50;3.57;;;-40.00;99.90;;;;;;5134813;27;20266;-74
2022/06/11 01:39:31;;;;;;;3.37;3.07;;;-40.00;99.90;;;;;;5135990;27;20290;-74
2022/06/11 01:42:43;;;;;;;15.40;4.77;;;-40.00;99.90;;;;;;5135957;27;20169;-75
2022/06/11 01:45:23;;;;;;;7.97;4.03;;;-40.00;99.90;;;;;;5125085;27;20189;-76
2022/06/11 01:47:50;;;;;;;5.27;3.00;;;-40.00;99.90;;;;;;5135985;27;20584;-75
2022/06/11 01:50:19;;;;;;;4.57;3.23;;;-40.00;99.90;;;;;;5136049;27;20170;-75
2022/06/11 01:52:54;;;;;;;5.27;3.23;;;-40.00;99.90;;;;;;5134708;27;20194;-75
2022/06/11 01:55:34;;;;;;;4.70;3.17;;;-40.00;99.90;;;;;;5136069;27;20165;-77
2022/06/11 01:58:44;;;;;;;4.33;3.47;;;-40.00;99.90;;;;;;5136571;27;20161;-75
2022/06/11 02:01:40;;;;;;;4.30;3.03;;;-40.00;99.90;;;;;;5139206;27;20240;-75
2022/06/11 02:04:27;;;;;;;6.87;3.37;;;-37.00;99.90;;;;;;5137968;27;20199;-72
2022/06/11 02:07:21;;;;;;;6.53;3.73;;;-35.60;99.90;;;;;;5139253;27;20169;-73
2022/06/11 02:10:03;;;;;;;5.30;2.93;;;-38.70;99.90;;;;;;5138780;27;20592;-74
2022/06/11 02:12:56;;;;;;;7.07;3.43;;;-40.00;99.90;;;;;;5138938;27;20201;-77
2022/06/11 02:15:29;;;;;;;14.27;4.23;;;-40.00;99.90;;;;;;5138244;27;20568;-73
2022/06/11 02:18:01;;;;;;;5.23;3.50;;;-40.00;99.90;;;;;;5139076;27;20162;-74
2022/06/11 02:20:32;;;;;;;5.40;2.80;;;-40.00;99.90;;;;;;5139170;27;20161;-74
2022/06/11 02:23:19;;;;;;;3.30;3.00;;;-40.00;99.90;;;;;;5138996;27;20173;-76
2022/06/11 02:25:51;;;;;;;5.17;3.70;;;-40.00;99.90;;;;;;5138861;27;20165;-76
2022/06/11 02:28:21;;;;;;;5.70;3.63;;;-40.00;99.90;;;;;;5139556;27;20268;-72
2022/06/11 02:30:50;;;;;;;3.37;3.07;;;-40.00;99.90;;;;;;5138930;27;20181;-76
2022/06/11 02:33:18;;;;;;;8.07;4.47;;;-34.50;99.90;;;;;;5138715;27;20245;-77
2022/06/11 02:35:50;;;;;;;3.83;3.43;;;-40.00;99.90;;;;;;5138747;27;20169;-78
2022/06/11 02:38:20;;;;;;;6.53;3.03;;;-40.00;99.90;;;;;;5138793;27;20580;-70
2022/06/11 02:40:51;;;;;;;3.50;3.30;;;-40.00;99.90;;;;;;5138436;27;20168;-77
2022/06/11 02:43:18;;;;;;;5.73;3.17;;;-40.00;99.90;;;;;;5138623;27;20188;-76
2022/06/11 02:45:44;;;;;;;3.97;3.00;;;-40.00;99.90;;;;;;5138733;27;20201;-77
2022/06/11 02:48:11;;;;;;;3.27;3.07;;;-40.00;99.90;;;;;;5138668;27;20170;-75
2022/06/11 02:50:37;;;;;;;9.47;3.27;;;-40.00;99.90;;;;;;5138671;27;20470;-75
2022/06/11 02:53:06;;;;;;;6.60;4.03;;;-40.00;99.90;;;;;;5137504;27;20192;-76
2022/06/11 02:55:32;;;;;;;7.17;3.70;;;-40.00;99.90;;;;;;5138192;27;20200;-71
2022/06/11 02:57:59;;;;;;;5.83;3.17;;;-40.00;99.90;;;;;;5138553;27;20513;-69
2022/06/11 03:00:29;;;;;;;5.40;3.27;;;-40.00;99.90;;;;;;5138549;27;20165;-66
2022/06/11 03:02:56;;;;;;;13.13;4.00;;;-40.00;99.90;;;;;;5138457;27;20162;-66
2022/06/11 03:05:26;;;;;;;5.83;3.53;;;-40.00;99.90;;;;;;5137168;27;20177;-67
2022/06/11 03:07:51;;;;;;;4.60;2.83;;;-40.00;99.90;;;;;;5138227;27;20188;-69
2022/06/11 03:10:20;;;;;;;3.53;3.23;;;-40.00;99.90;;;;;;5137606;27;20169;-68
2022/06/11 03:12:45;;;;;;;4.40;3.30;;;-40.00;99.90;;;;;;5138094;27;20188;-75
2022/06/11 03:15:13;;;;;;;3.07;2.87;;;-40.00;99.90;;;;;;5138073;27;20509;-69
2022/06/11 03:17:40;;;;;;;2.67;2.47;;;-40.00;99.90;;;;;;5138090;27;20659;-73
2022/06/11 03:20:07;;;;;;;3.20;2.90;;;-40.00;99.90;;;;;;5137944;27;20161;-72
2022/06/11 03:22:34;;;;;;;4.33;2.87;;;-40.00;99.90;;;;;;5137997;27;20180;-67
2022/06/11 03:24:59;;;;;;;2.67;2.47;;;-40.00;99.90;;;;;;5137514;27;20162;-73
2022/06/11 03:27:25;;;;;;;7.37;3.13;;;-40.00;99.90;;;;;;5137968;27;20176;-74
2022/06/11 03:29:51;;;;;;;3.07;2.77;;;-40.00;99.90;;;;;;5137709;27;20519;-70
2022/06/11 03:32:18;;;;;;;2.37;2.17;;;-40.00;99.90;;;;;;5137704;27;20192;-74
2022/06/11 03:34:45;;;;;;;3.20;2.30;;;-40.00;99.90;;;;;;5137666;27;20222;-76
2022/06/11 03:37:11;;;;;;;4.13;3.03;;;-40.00;99.90;;;;;;5137545;27;20300;-71
2022/06/11 03:39:37;;;;;;;3.33;2.83;;;-40.00;99.90;;;;;;5137264;27;20210;-71
2022/06/11 03:42:04;;;;;;;2.40;2.13;;;-40.00;99.90;;;;;;5137432;27;20563;-74
2022/06/11 03:44:29;;;;;;;2.40;2.20;;;-40.00;99.90;;;;;;5137507;27;20592;-68
2022/06/11 03:46:56;;;;;;;8.73;3.57;;;-40.00;99.90;;;;;;5137451;27;20169;-66
2022/06/11 03:49:23;;;;;;;5.33;4.00;;;-40.00;99.90;;;;;;5137499;27;20162;-76
2022/06/11 03:51:50;;;;;;;7.93;3.27;;;-40.00;99.90;;;;;;5137186;27;20165;-66
2022/06/11 03:54:16;;;;;;;2.83;1.93;;;-40.00;99.90;;;;;;5137149;27;20480;-66
2022/06/11 03:56:44;;;;;;;2.83;2.63;;;-40.00;99.90;;;;;;5137235;27;20245;-77
2022/06/11 03:59:10;;;;;;;2.30;2.10;;;-40.00;99.90;;;;;;5136081;27;20180;-70
2022/06/11 04:01:37;;;;;;;5.53;2.40;;;-40.00;99.90;;;;;;5137007;27;20181;-78
2022/06/11 04:04:08;;;;;;;2.80;2.60;;;-40.00;99.90;;;;;;5137078;27;20165;-72
2022/06/11 04:06:56;;;;;;;3.13;2.40;;;-40.00;99.90;;;;;;5137364;27;20188;-75
2022/06/11 04:09:28;;;;;;;8.40;2.40;;;-40.00;99.90;;;;;;5136776;27;20185;-73
2022/06/11 04:11:54;;;;;;;3.10;2.20;;;-40.00;99.90;;;;;;5136944;27;20161;-73
2022/06/11 04:14:20;;;;;;;3.40;2.33;;;-40.00;99.90;;;;;;5137009;27;20240;-75
2022/06/11 04:16:54;;;;;;;3.33;2.73;;;-40.00;99.90;;;;;;5136912;27;20266;-76
2022/06/11 04:19:29;;;;;;;4.50;2.27;;;-40.00;99.90;;;;;;5136156;27;20161;-74
2022/06/11 04:21:56;;;;;;;3.20;2.40;;;-40.00;99.90;;;;;;5134822;27;20169;-73
2022/06/11 04:24:23;;;;;;;3.97;2.70;;;-40.00;99.90;;;;;;5135706;27;20189;-74
2022/06/11 04:26:51;;;;;;;4.00;2.33;;;-40.00;99.90;;;;;;5136522;27;20173;-68
2022/06/11 04:29:21;;;;;;;4.70;2.30;;;-40.00;99.90;;;;;;5136699;27;20161;-74
2022/06/11 04:31:49;;;;;;;4.07;1.80;;;-40.00;99.90;;;;;;5136540;27;20158;-69
2022/06/11 04:34:15;;;;;;;5.30;2.87;;;-40.00;99.90;;;;;;5136749;27;20157;-70
2022/06/11 04:36:43;;;;;;;3.37;2.57;;;-40.00;99.90;;;;;;5136329;27;20177;-74
2022/06/11 04:39:09;;;;;;;6.80;3.67;;;-40.00;99.90;;;;;;5136582;27;20177;-69
2022/06/11 04:41:35;;;;;;;3.27;2.53;;;-40.00;99.90;;;;;;5136437;27;20165;-68
2022/06/11 04:44:02;;;;;;;4.27;3.10;;;-40.00;99.90;;;;;;5136667;27;20245;-67
2022/06/11 04:46:28;;;;;;;4.10;2.10;;;-40.00;99.90;;;;;;5136362;27;20760;-70
2022/06/11 04:48:54;;;;;;;4.00;2.30;;;-40.00;99.90;;;;;;5136714;27;20177;-73
2022/06/11 04:51:20;;;;;;;6.63;2.97;;;-40.00;99.90;;;;;;5136157;27;20449;-68
2022/06/11 04:53:48;;;;;;;2.27;2.00;;;-40.00;99.90;;;;;;5136541;27;20199;-68
2022/06/11 04:56:21;;;;;;;3.00;2.20;;;-40.00;99.90;;;;;;5136525;27;20245;-71
2022/06/11 04:58:48;;;;;;;2.63;2.43;;;-40.00;99.90;;;;;;5136478;27;20246;-67
2022/06/11 05:01:14;;;;;;;3.47;2.20;;;-40.00;99.90;;;;;;5136347;27;20165;-71
2022/06/11 05:03:40;;;;;;;4.00;2.20;;;-40.00;99.90;;;;;;5136417;27;20584;-67
2022/06/11 05:06:06;;;;;;;6.33;2.50;;;-40.00;99.90;;;;;;5136098;27;20188;-68
2022/06/11 05:08:31;;;;;;;3.93;2.37;;;-40.00;99.90;;;;;;5136319;27;20215;-66
2022/06/11 05:10:58;;;;;;;5.83;2.30;;;-40.00;99.90;;;;;;5136319;27;20534;-66
2022/06/11 05:13:24;;;;;;;5.17;2.40;;;-40.00;99.90;;;;;;5136166;27;20235;-75
2022/06/11 05:15:53;;;;;;;2.47;1.83;;;-40.00;99.90;;;;;;5136263;27;20498;-73
2022/06/11 05:18:20;;;;;;;7.07;1.97;;;-40.00;99.90;;;;;;5136144;27;20240;-72
2022/06/11 05:20:47;;;;;;;9.33;3.33;;;-40.00;99.90;;;;;;5135907;27;20472;-73
2022/06/11 05:23:13;;;;;;;5.20;2.17;;;-40.00;99.90;;;;;;5136070;27;20241;-77
2022/06/11 05:25:42;;;;;;;6.80;3.43;;;-40.00;99.90;;;;;;5136064;27;20169;-74
2022/06/11 05:28:11;;;;;;;7.53;2.50;;;-40.00;99.90;;;;;;5136115;27;20181;-74
2022/06/11 05:30:37;;;;;;;8.07;2.50;;;-40.00;99.00;;;;;;5136136;27;20565;-75
2022/06/11 05:33:03;;;;;;;7.00;2.73;;;-40.00;99.40;;;;;;5138672;27;20245;-72
2022/06/11 05:35:32;;;;;;;6.87;2.00;;;-40.00;99.90;;;;;;5138485;27;20565;-75
2022/06/11 05:38:00;;;;;;;10.13;3.00;;;-40.00;99.90;;;;;;5138902;27;20261;-69
2022/06/11 05:40:30;;;;;;;4.33;3.30;;;-40.00;99.30;;;;;;5139864;27;20162;-78
2022/06/11 05:42:56;;;;;;;5.53;1.90;;;-40.00;99.90;;;;;;5139686;27;20582;-69
2022/06/11 05:45:33;;;;;;;3.70;1.80;;;-40.00;99.90;;;;;;5139983;27;20170;-73
2022/06/11 05:48:00;;;;;;;8.43;2.03;;;-40.00;99.70;;;;;;5139715;27;20579;-71
2022/06/11 05:50:31;;;;;;;8.30;3.23;;;-40.00;99.50;;;;;;5139450;27;20173;-77
2022/06/11 05:52:59;;;;;;;4.70;2.57;;;-40.00;98.70;;;;;;5139523;27;20545;-74
2022/06/11 05:55:28;;;;;;;8.90;2.90;;;-40.00;97.20;;;;;;5139964;27;20465;-70
2022/06/11 05:57:56;;;;;;;10.63;2.87;;;-40.00;95.00;;;;;;5139694;27;20215;-77
2022/06/11 06:00:24;;;;;;;11.57;4.53;;;-40.00;92.20;;;;;;5139721;27;20534;-73
2022/06/11 06:02:50;;;;;;;6.37;2.37;;;-40.00;91.90;;;;;;5139401;27;20204;-71
2022/06/11 06:05:24;;;;;;;10.63;3.07;;;-40.00;91.70;;;;;;5139146;27;20498;-70
2022/06/11 06:07:50;;;;;;;5.23;2.63;;;-40.00;91.60;;;;;;5139416;27;20190;-72
2022/06/11 06:10:15;;;;;;;8.10;2.50;;;-40.00;92.40;;;;;;5139427;27;20214;-74
2022/06/11 06:12:41;;;;;;;8.83;3.17;;;-40.00;93.60;;;;;;5139290;27;20200;-71
2022/06/11 06:15:11;;;;;;;5.97;1.87;;;-40.00;95.50;;;;;;5139422;27;20194;-76
2022/06/11 06:17:38;;;;;;;11.17;3.03;;;-40.00;97.40;;;;;;5139159;27;20644;-72
2022/06/11 06:20:06;;;;;;;7.10;3.03;;;-40.00;99.30;;;;;;5138987;27;20154;-71
2022/06/11 06:22:33;;;;;;;5.73;2.67;;;-40.00;99.60;;;;;;5139089;27;20169;-73
2022/06/11 06:24:58;;;;;;;9.77;3.63;;;-40.00;98.50;;;;;;5138980;27;20302;-69
2022/06/11 06:27:24;;;;;;;9.37;2.83;;;-40.00;99.00;;;;;;5139149;27;20222;-72
2022/06/11 06:29:50;;;;;;;7.83;3.10;;;-40.00;98.60;;;;;;5136267;27;20188;-75
2022/06/11 06:32:16;;;;;;;8.33;2.87;;;-40.00;99.90;;;;;;5135230;27;20205;-76
2022/06/11 06:34:42;;;;;;;7.73;2.90;;;-40.00;99.90;;;;;;5137635;27;20177;-76
2022/06/11 06:37:08;;;;;;;12.37;2.70;;;-40.00;99.90;;;;;;5137649;27;20181;-75
2022/06/11 06:39:33;;;;;;;7.60;3.10;;;-40.00;99.90;;;;;;5137859;27;20197;-80
2022/06/11 06:41:59;;;;;;;6.17;2.50;;;-40.00;99.90;;;;;;5138880;27;20169;-74
2022/06/11 06:44:25;;;;;;;14.07;3.83;;;-39.40;99.90;;;;;;5136451;27;20190;-74
2022/06/11 06:46:51;;;;;;;8.43;3.30;;;-40.00;99.90;;;;;;5137488;27;20513;-68
2022/06/11 06:49:17;;;;;;;12.40;3.73;;;-40.00;99.90;;;;;;5138014;27;20179;-72
2022/06/11 06:51:43;;;;;;;12.37;3.47;;;-40.00;99.90;;;;;;5138045;27;20192;-69
2022/06/11 06:54:09;;;;;;;5.60;3.27;;;-36.90;99.90;;;;;;5138045;27;20225;-70
2022/06/11 06:56:35;;;;;;;9.77;2.73;;;-40.00;99.90;;;;;;5137596;27;20179;-67
2022/06/11 06:59:01;;;;;;;11.37;3.33;;;-40.00;99.90;;;;;;5137929;27;20165;-69
2022/06/11 07:01:28;;;;;;;11.13;4.17;;;-40.00;99.90;;;;;;5138163;27;20165;-72
2022/06/11 07:03:55;;;;;;;14.77;3.07;;;-40.00;99.90;;;;;;5138609;27;20248;-70
2022/06/11 07:06:22;;;;;;;7.13;3.30;;;-40.00;99.90;;;;;;5137239;27;20181;-74
2022/06/11 07:08:54;;;;;;;8.77;3.63;;;-40.00;99.90;;;;;;5135861;27;20204;-72
2022/06/11 07:11:21;;;;;;;16.03;3.77;;;-40.00;99.90;;;;;;5136849;27;20161;-69
2022/06/11 07:13:47;;;;;;;13.83;2.87;;;-40.00;99.90;;;;;;5134468;27;20193;-70
2022/06/11 07:16:22;;;;;;;7.43;3.27;;;-40.00;99.90;;;;;;5136731;27;20170;-68
2022/06/11 07:18:55;;;;;;;10.97;3.10;;;-38.90;99.90;;;;;;5134351;27;20176;-69
2022/06/11 07:21:26;;;;;;;8.30;2.83;;;-37.50;99.90;;;;;;5136627;27;20510;-68
2022/06/11 07:23:58;;;;;;;13.93;3.57;;;-40.00;99.90;;;;;;5136859;27;20260;-69
2022/06/11 07:26:33;;;;;;;7.47;2.83;;;-40.00;99.90;;;;;;5136748;27;20177;-70
2022/06/11 07:29:05;;;;;;;7.37;2.80;;;-40.00;99.90;;;;;;5137046;27;20470;-71
2022/06/11 07:31:31;;;;;;;7.77;3.10;;;-40.00;99.90;;;;;;5136844;27;20248;-69
2022/06/11 07:33:58;;;;;;;15.23;4.87;;;-38.60;99.90;;;;;;5137607;27;20283;-73
2022/06/11 07:36:25;;;;;;;12.03;3.77;;;-40.00;99.10;;;;;;5137224;27;20180;-75
2022/06/11 07:38:51;;;;;;;9.77;2.83;;;-40.00;98.20;;;;;;5137587;27;20166;-69
2022/06/11 07:41:17;;;;;;;9.90;3.70;;;-40.00;97.10;;;;;;5137423;27;20211;-69
2022/06/11 07:43:43;;;;;;;7.20;3.10;;;-40.00;96.40;;;;;;5137492;27;20169;-69
2022/06/11 07:46:09;;;;;;;5.70;2.40;;;-40.00;94.90;;;;;;5137429;27;20214;-68
2022/06/11 07:48:36;;;;;;;9.97;2.97;;;-40.00;95.60;;;;;;5137826;27;20165;-68
2022/06/11 07:51:02;;;;;;;6.13;2.67;;;-40.00;95.80;;;;;;5137648;27;20245;-68
2022/06/11 07:53:28;;;;;;;4.10;2.43;;;-40.00;95.70;;;;;;5137579;27;20687;-69
2022/06/11 07:55:55;;;;;;;12.27;3.03;;;-40.00;96.50;;;;;;5136627;27;20196;-69
2022/06/11 07:58:27;;;;;;;8.37;2.83;;;-39.30;96.40;;;;;;5137678;27;20188;-69
2022/06/11 08:00:54;;;;;;;7.03;3.03;;;-40.00;96.60;;;;;;5136059;27;20166;-69
2022/06/11 08:03:20;;;;;;;8.90;2.77;;;-40.00;95.70;;;;;;5136317;27;20590;-69
2022/06/11 08:05:47;;;;;;;9.37;3.93;;;-40.00;95.80;;;;;;5137144;27;20181;-69
2022/06/11 08:08:14;;;;;;;8.97;3.20;;;-40.00;94.30;;;;;;5136276;27;20197;-69
2022/06/11 08:10:42;;;;;;;14.23;4.03;;;-40.00;93.50;;;;;;5136958;27;20188;-69
2022/06/11 08:13:08;;;;;;;12.83;3.90;;;-33.60;95.00;;;;;;5137202;27;20197;-72
2022/06/11 08:15:35;;;;;;;10.53;3.83;;;-40.00;94.00;;;;;;5136828;27;20158;-68
2022/06/11 08:18:01;;;;;;;10.10;4.07;;;-30.50;96.00;;;;;;5137190;27;20162;-72
2022/06/11 08:20:30;;;;;;;8.00;2.67;;;-37.30;94.00;;;;;;5137078;27;20218;-69
2022/06/11 08:22:57;;;;;;;7.80;3.37;;;-40.00;92.90;;;;;;5136881;27;20240;-69
2022/06/11 08:25:23;;;;;;;6.73;2.27;;;-40.00;92.80;;;;;;5136917;27;20208;-69
2022/06/11 08:27:49;;;;;;;10.07;3.17;;;-40.00;92.50;;;;;;5136976;27;20257;-68
2022/06/11 08:30:20;;;;;;;10.40;3.00;;;-40.00;92.40;;;;;;5135710;27;20175;-68
2022/06/11 08:32:46;;;;;;;10.33;3.03;;;-40.00;92.70;;;;;;5135487;27;20592;-71
2022/06/11 08:35:14;;;;;;;8.17;2.63;;;-40.00;92.10;;;;;;5137093;27;20252;-68
2022/06/11 08:37:40;;;;;;;4.27;2.47;;;-40.00;91.90;;;;;;5136580;27;20595;-68
2022/06/11 08:40:07;;;;;;;10.37;3.17;;;-40.00;91.30;;;;;;5135790;27;20162;-68
2022/06/11 08:42:46;;;;;;;9.67;3.07;;;-40.00;91.00;;;;;;5136674;27;20169;-68
2022/06/11 08:45:27;;;;;;;6.30;2.90;;;-40.00;90.90;;;;;;5136884;27;20208;-69
2022/06/11 08:48:01;;;;;;;14.13;3.50;;;-40.00;90.90;;;;;;5136780;27;20160;-71
2022/06/11 08:50:33;;;;;;;10.83;3.43;;;-40.00;91.50;;;;;;5136794;27;20160;-70
2022/06/11 08:53:00;;;;;;;7.57;3.07;;;-40.00;91.60;;;;;;5136713;27;20209;-76
2022/06/11 08:55:32;;;;;;;10.27;3.37;;;-40.00;92.30;;;;;;5136736;27;20586;-68
2022/06/11 08:58:37;;;;;;;7.90;3.00;;;-40.00;92.00;;;;;;5136420;27;20161;-72
2022/06/11 09:01:19;;;;;;;9.57;2.83;;;-40.00;90.80;;;;;;5136700;27;20161;-68
2022/06/11 09:04:02;;;;;;;8.73;2.83;;;-40.00;90.00;;;;;;5136493;27;20177;-70
2022/06/11 09:06:58;;;;;;;8.40;2.73;;;-40.00;89.00;;;;;;5136467;27;20173;-68
2022/06/11 09:09:35;;;;;;;10.97;3.23;;;-40.00;89.20;;;;;;5140086;27;20193;-68
2022/06/11 09:12:16;;;;;;;8.27;3.03;;;-40.00;88.60;;;;;;5139850;27;20241;-77
2022/06/11 09:14:59;;;;;;;10.37;4.07;;;-40.00;89.20;;;;;;5140388;27;20173;-70
2022/06/11 09:17:37;;;;;;;11.17;2.83;;;-40.00;90.30;;;;;;5140510;27;20258;-69
2022/06/11 09:20:35;;;;;;;6.40;2.97;;;-40.00;88.90;;;;;;5140539;27;20169;-68
2022/06/11 09:23:01;;;;;;;4.53;1.97;;;-40.00;90.00;;;;;;5137992;27;20185;-68
2022/06/11 09:26:00;;;;;;;7.13;2.17;;;-40.00;89.70;;;;;;5140309;27;20576;-69
2022/06/11 09:28:43;;;;;;;15.27;3.73;;;-40.00;90.00;;;;;;5140125;27;20281;-70
2022/06/11 09:31:32;;;;;;;10.83;3.53;;;-40.00;90.60;;;;;;5140374;27;20649;-69
2022/06/11 09:34:10;;;;;;;6.13;2.80;;;-40.00;90.40;;;;;;5140242;27;20197;-69
2022/06/11 09:36:59;;;;;;;6.50;2.77;;;-40.00;89.00;;;;;;5140043;27;20185;-69
2022/06/11 09:39:37;;;;;;;9.13;3.87;;;-40.00;90.60;;;;;;5138168;27;20169;-68
2022/06/11 09:42:35;;;;;;;13.07;2.93;;;-40.00;88.40;;;;;;5140004;27;20176;-70
2022/06/11 09:45:25;;;;;;;7.93;3.47;;;-40.00;90.60;;;;;;5136130;27;20209;-69
2022/06/11 09:48:20;;;;;;;7.43;2.70;;;-36.50;91.80;;;;;;5139471;27;20181;-68
2022/06/11 09:51:19;;;;;;;9.77;2.63;;;-40.00;90.20;;;;;;5138654;27;20652;-73
2022/06/11 09:54:13;;;;;;;8.67;2.83;;;-40.00;90.20;;;;;;5138625;27;20201;-70
2022/06/11 09:56:47;;;;;;;9.87;4.10;;;-40.00;90.60;;;;;;5138459;27;20168;-69
2022/06/11 10:00:00;;;;;;;12.40;4.43;;;-40.00;90.30;;;;;;5139652;27;20564;-73
2022/06/11 10:02:37;;;;;;;7.83;2.73;;;-40.00;90.40;;;;;;5137414;27;20193;-72
2022/06/11 10:05:14;;;;;;;13.33;4.60;;;-40.00;89.50;;;;;;5138456;27;20200;-73
2022/06/11 10:07:44;;;;;;;6.93;2.70;;;-40.00;90.00;;;;;;5139718;27;20205;-74
2022/06/11 10:10:15;;;;;;;6.43;2.63;;;-40.00;90.60;;;;;;5138155;27;20260;-70
2022/06/11 10:12:56;;;;;;;8.70;3.53;;;-40.00;90.30;;;;;;5139417;27;20208;-69
2022/06/11 10:15:32;;;;;;;13.07;3.53;;;-40.00;88.70;;;;;;5139193;27;20191;-74
2022/06/11 10:18:19;;;;;;;6.40;3.43;;;-40.00;88.60;;;;;;5138725;27;20522;-69
2022/06/11 10:21:00;;;;;;;4.10;2.47;;;-40.00;86.30;;;;;;5139379;27;20481;-68
2022/06/11 10:23:43;;;;;;;6.23;3.20;;;-40.00;85.30;;;;;;5139149;27;20161;-68
2022/06/11 10:26:30;;;;;;;13.70;4.07;;;-40.00;82.40;;;;;;5139012;27;20590;-69
2022/06/11 10:29:10;;;;;;;12.10;4.07;;;-40.00;86.60;;;;;;5139241;27;20177;-67
2022/06/11 10:31:40;;;;;;;17.53;11.77;;;-40.00;85.50;;;;;;5138868;27;20169;-71
2022/06/11 10:34:34;;;;;;;7.33;4.43;;;-38.60;84.60;;;;;;5138914;27;20284;-71
2022/06/11 10:37:21;;;;;;;9.40;2.27;;;-40.00;82.30;;;;;;5136722;27;20201;-72
2022/06/11 10:39:54;;;;;;;8.03;3.90;;;-40.00;80.30;;;;;;5138751;27;20194;-76
2022/06/11 10:42:38;;;;;;;6.13;3.07;;;-37.60;83.20;;;;;;5138766;27;20557;-68
2022/06/11 10:45:08;;;;;;;6.70;2.80;;;-40.00;77.50;;;;;;5138919;27;20169;-70
2022/06/11 10:47:41;;;;;;;10.23;4.33;;;-35.90;81.90;;;;;;5138812;27;20196;-69
2022/06/11 10:50:18;;;;;;;8.50;2.63;;;-40.00;79.10;;;;;;5138573;27;20169;-76
2022/06/11 10:53:05;;;;;;;4.90;2.03;;;-40.00;76.20;;;;;;5138590;27;20196;-74
2022/06/11 10:55:51;;;;;;;4.30;1.93;;;-32.10;82.30;;;;;;5138255;27;20561;-69
2022/06/11 10:58:46;;;;;;;5.63;2.20;;;-40.00;81.50;;;;;;5138639;27;20173;-67
2022/06/11 11:01:27;;;;;;;7.00;2.50;;;21.80;99.90;;;;;;5131988;27;20169;-69
2022/06/11 11:04:14;;;;;;;4.20;2.43;;;21.70;99.90;;;;;;5134967;27;20181;-72
2022/06/11 11:06:41;;;;;;;13.03;3.50;;;21.90;99.90;;;;;;5137270;27;20184;-72
2022/06/11 11:09:23;;;;;;;6.70;3.23;;;21.70;99.90;;;;;;5135602;27;20258;-70
2022/06/11 11:11:53;;;;;;;5.80;2.37;;;21.40;99.90;;;;;;5132890;27;20177;-70
2022/06/11 11:14:39;;;;;;;8.47;2.93;;;21.60;99.90;;;;;;5136853;27;20258;-70
2022/06/11 11:17:17;;;;;;;5.57;2.30;;;21.90;99.90;;;;;;5137212;27;20173;-73
2022/06/11 11:20:29;;;;;;;4.60;1.63;;;22.00;99.90;;;;;;5136536;27;20169;-71
2022/06/11 11:22:37;;;;;;;4.97;2.33;;;22.50;99.90;;;;;;5136715;27;20178;-72
2022/06/11 11:25:13;;;;;;;5.90;1.93;;;22.50;99.90;;;;;;5136675;27;20588;-74
2022/06/11 11:27:45;;;;;;;2.30;1.50;;;22.20;99.90;;;;;;5137137;27;20479;-73
2022/06/11 11:30:28;;;;;;;6.23;1.83;;;22.30;99.90;;;;;;5136450;27;20176;-73
2022/06/11 11:32:54;;;;;;;4.93;2.50;;;22.40;99.90;;;;;;5137215;27;20189;-73
2022/06/11 11:35:36;;;;;;;5.30;2.10;;;22.40;99.90;;;;;;5133709;27;20599;-69
2022/06/11 11:38:13;;;;;;;12.33;2.80;;;22.40;99.90;;;;;;5133727;27;20189;-72
2022/06/11 11:40:50;;;;;;;5.93;2.60;;;22.00;99.90;;;;;;5136279;27;20173;-74
2022/06/11 11:43:16;;;;;;;5.10;2.27;;;22.30;99.90;;;;;;5136782;27;20596;-73
2022/06/11 11:45:46;;;;;;;6.07;2.67;;;22.60;99.90;;;;;;5135988;27;20175;-73
2022/06/11 11:48:31;;;;;;;4.77;1.63;;;21.80;99.30;;;;;;5134068;27;20189;-70
2022/06/11 11:51:05;;;;;;;3.80;1.63;;;15.40;97.60;;;;;;5134369;27;20183;-70
2022/06/11 11:53:47;;;;;;;7.73;2.00;;;23.20;98.70;;;;;;5135510;27;20534;-71
2022/06/11 11:56:30;;;;;;;4.33;1.97;;;-40.00;65.60;;;;;;5136235;27;20289;-70
2022/06/11 11:59:25;;;;;;;18.10;13.60;;;-40.00;64.60;;;;;;5135369;27;20203;-74
2022/06/11 12:01:55;;;;;;;6.90;6.20;;;-40.00;66.60;;;;;;5118306;27;20277;-77
2022/06/11 12:04:21;;;;;;;7.60;4.17;;;-40.00;62.80;;;;;;5135885;27;20158;-75
2022/06/11 12:06:59;;;;;;;3.23;1.93;;;-11.20;83.00;;;;;;5136079;27;20192;-71
2022/06/11 12:09:52;;;;;;;6.03;4.37;;;25.30;96.70;;;;;;5135654;27;20276;-75
2022/06/11 12:12:21;;;;;;;7.60;4.93;;;26.00;95.00;;;;;;5133575;27;20212;-75
2022/06/11 12:14:55;;;;;;;3.90;1.80;;;-40.00;58.60;;;;;;5135698;27;20268;-71
2022/06/11 12:17:38;;;;;;;3.30;2.10;;;26.90;95.10;;;;;;5125172;27;20228;-70
2022/06/11 12:20:12;;;;;;;4.23;1.90;;;26.70;94.30;;;;;;5135346;27;20213;-72
2022/06/11 12:22:44;;;;;;;3.40;2.20;;;26.40;95.00;;;;;;5124417;27;20172;-69
2022/06/11 12:25:23;;;;;;;2.73;1.50;;;26.00;95.10;;;;;;5135640;27;20172;-69
2022/06/11 12:27:50;;;;;;;3.93;2.00;;;26.00;95.60;;;;;;5134848;27;20172;-75
2022/06/11 12:30:24;;;;;;;1.77;1.67;;;24.00;95.00;;;;;;5135595;27;20161;-72
2022/06/11 12:32:50;;;;;;;5.53;2.17;;;26.60;97.10;;;;;;5134187;27;20212;-68
2022/06/11 12:35:23;;;;;;;3.77;2.60;;;26.10;95.90;;;;;;5133163;27;20236;-72
2022/06/11 12:38:04;;;;;;;4.27;2.53;;;26.90;95.10;;;;;;5135024;27;20196;-69
2022/06/11 12:40:36;;;;;;;9.30;3.23;;;26.70;93.00;;;;;;5130800;27;20188;-70
2022/06/11 12:43:37;;;;;;;5.70;2.73;;;24.70;92.10;;;;;;5134960;27;20261;-70
2022/06/11 12:46:31;;;;;;;3.57;1.70;;;27.20;93.60;;;;;;5135583;27;20165;-71
2022/06/11 12:49:21;;;;;;;2.10;1.93;;;27.40;94.10;;;;;;5131841;28;20181;-68
2022/06/11 12:52:16;;;;;;;4.07;1.70;;;26.60;92.50;;;;;;5135152;27;20185;-69
2022/06/11 12:54:51;;;;;;;3.87;2.47;;;26.50;93.20;;;;;;5122732;28;20226;-69
2022/06/11 12:57:32;;;;;;;4.50;2.70;;;25.60;92.10;;;;;;5135491;27;20256;-69
2022/06/11 13:00:39;;;;;;;3.73;1.93;;;26.20;92.60;;;;;;5135403;27;20647;-68
2022/06/11 13:03:07;;;;;;;3.93;1.83;;;25.20;92.00;;;;;;5090938;28;20182;-71
2022/06/11 13:06:10;;;;;;;4.27;1.60;;;27.60;92.10;;;;;;5122215;28;20266;-69
2022/06/11 13:08:54;;;;;;;7.13;2.07;;;27.30;91.90;;;;;;5134843;27;20207;-69